sensor_id;sensor_type;location;lat;lon;timestamp;P1;durP1;ratioP1;P2;durP2;ratioP2
55009;SDS011;40903;51.638;7.528;2023-11-22T00:00:09;8.07;;;4.20;;
55009;SDS011;40903;51.638;7.528;2023-11-22T00:02:35;7.17;;;4.40;;
55009;SDS011;40903;51.638;7.528;2023-11-22T00:05:02;8.17;;;4.30;;
55009;SDS011;40903;51.638;7.528;2023-11-22T00:07:28;6.00;;;4.23;;
55009;SDS011;40903;51.638;7.528;2023-11-22T00:09:54;8.07;;;4.70;;
55009;SDS011;40903;51.638;7.528;2023-11-22T00:12:20;7.43;;;4.33;;
55009;SDS011;40903;51.638;7.528;2023-11-22T00:14:48;7.23;;;5.03;;
55009;SDS011;40903;51.638;7.528;2023-11-22T00:17:13;9.10;;;5.33;;
55009;SDS011;40903;51.638;7.528;2023-11-22T00:19:39;7.60;;;4.70;;
55009;SDS011;40903;51.638;7.528;2023-11-22T00:22:05;6.97;;;4.73;;
55009;SDS011;40903;51.638;7.528;2023-11-22T00:24:38;8.57;;;4.87;;
55009;SDS011;40903;51.638;7.528;2023-11-22T00:27:04;7.43;;;5.27;;
55009;SDS011;40903;51.638;7.528;2023-11-22T00:29:30;6.07;;;4.50;;
55009;SDS011;40903;51.638;7.528;2023-11-22T00:31:55;5.83;;;4.43;;
55009;SDS011;40903;51.638;7.528;2023-11-22T00:34:21;7.33;;;4.50;;
55009;SDS011;40903;51.638;7.528;2023-11-22T00:36:48;7.17;;;4.60;;
55009;SDS011;40903;51.638;7.528;2023-11-22T00:39:14;8.87;;;4.50;;
55009;SDS011;40903;51.638;7.528;2023-11-22T00:41:39;6.53;;;4.70;;
55009;SDS011;40903;51.638;7.528;2023-11-22T00:44:05;6.47;;;4.63;;
55009;SDS011;40903;51.638;7.528;2023-11-22T00:46:31;7.03;;;4.30;;
55009;SDS011;40903;51.638;7.528;2023-11-22T00:48:57;7.67;;;4.87;;
55009;SDS011;40903;51.638;7.528;2023-11-22T00:51:23;5.73;;;3.80;;
55009;SDS011;40903;51.638;7.528;2023-11-22T00:53:49;8.10;;;5.30;;
55009;SDS011;40903;51.638;7.528;2023-11-22T00:56:15;10.97;;;5.40;;
55009;SDS011;40903;51.638;7.528;2023-11-22T00:58:40;7.93;;;5.10;;
55009;SDS011;40903;51.638;7.528;2023-11-22T01:01:06;8.20;;;4.80;;
55009;SDS011;40903;51.638;7.528;2023-11-22T01:03:32;10.10;;;5.23;;
55009;SDS011;40903;51.638;7.528;2023-11-22T01:05:58;7.20;;;4.43;;
55009;SDS011;40903;51.638;7.528;2023-11-22T01:08:24;6.07;;;4.27;;
55009;SDS011;40903;51.638;7.528;2023-11-22T01:10:49;7.93;;;4.60;;
55009;SDS011;40903;51.638;7.528;2023-11-22T01:13:15;7.47;;;4.63;;
55009;SDS011;40903;51.638;7.528;2023-11-22T01:15:41;7.53;;;4.70;;
55009;SDS011;40903;51.638;7.528;2023-11-22T01:18:07;8.50;;;5.37;;
55009;SDS011;40903;51.638;7.528;2023-11-22T01:20:33;9.23;;;5.37;;
55009;SDS011;40903;51.638;7.528;2023-11-22T01:22:59;7.13;;;4.63;;
55009;SDS011;40903;51.638;7.528;2023-11-22T01:25:25;7.87;;;4.90;;
55009;SDS011;40903;51.638;7.528;2023-11-22T01:27:51;7.03;;;4.70;;
55009;SDS011;40903;51.638;7.528;2023-11-22T01:30:16;7.23;;;4.83;;
55009;SDS011;40903;51.638;7.528;2023-11-22T01:32:43;7.10;;;4.37;;
55009;SDS011;40903;51.638;7.528;2023-11-22T01:35:10;8.20;;;4.70;;
55009;SDS011;40903;51.638;7.528;2023-11-22T01:37:35;6.87;;;4.97;;
55009;SDS011;40903;51.638;7.528;2023-11-22T01:40:02;8.77;;;4.57;;
55009;SDS011;40903;51.638;7.528;2023-11-22T01:42:29;8.30;;;5.13;;
55009;SDS011;40903;51.638;7.528;2023-11-22T01:44:54;6.03;;;5.10;;
55009;SDS011;40903;51.638;7.528;2023-11-22T01:47:21;6.07;;;3.90;;
55009;SDS011;40903;51.638;7.528;2023-11-22T01:49:49;6.73;;;5.30;;
55009;SDS011;40903;51.638;7.528;2023-11-22T01:52:15;8.93;;;3.77;;
55009;SDS011;40903;51.638;7.528;2023-11-22T01:54:41;9.53;;;3.87;;
55009;SDS011;40903;51.638;7.528;2023-11-22T01:57:09;6.77;;;4.57;;
55009;SDS011;40903;51.638;7.528;2023-11-22T01:59:35;7.30;;;5.47;;
55009;SDS011;40903;51.638;7.528;2023-11-22T02:02:01;7.83;;;4.33;;
55009;SDS011;40903;51.638;7.528;2023-11-22T02:04:26;7.80;;;4.63;;
55009;SDS011;40903;51.638;7.528;2023-11-22T02:06:52;7.43;;;4.20;;
55009;SDS011;40903;51.638;7.528;2023-11-22T02:09:18;7.57;;;3.70;;
55009;SDS011;40903;51.638;7.528;2023-11-22T02:11:44;7.10;;;3.87;;
55009;SDS011;40903;51.638;7.528;2023-11-22T02:14:14;6.73;;;4.30;;
55009;SDS011;40903;51.638;7.528;2023-11-22T02:16:40;7.00;;;4.20;;
55009;SDS011;40903;51.638;7.528;2023-11-22T02:19:07;6.00;;;3.97;;
55009;SDS011;40903;51.638;7.528;2023-11-22T02:21:38;8.57;;;4.37;;
55009;SDS011;40903;51.638;7.528;2023-11-22T02:24:05;5.83;;;3.67;;
55009;SDS011;40903;51.638;7.528;2023-11-22T02:26:32;7.33;;;3.80;;
55009;SDS011;40903;51.638;7.528;2023-11-22T02:28:58;7.20;;;3.73;;
55009;SDS011;40903;51.638;7.528;2023-11-22T02:31:24;5.37;;;3.73;;
55009;SDS011;40903;51.638;7.528;2023-11-22T02:33:52;6.60;;;4.10;;
55009;SDS011;40903;51.638;7.528;2023-11-22T02:36:20;5.93;;;3.70;;
55009;SDS011;40903;51.638;7.528;2023-11-22T02:38:47;4.60;;;3.57;;
55009;SDS011;40903;51.638;7.528;2023-11-22T02:41:12;5.93;;;3.97;;
55009;SDS011;40903;51.638;7.528;2023-11-22T02:43:38;5.87;;;3.67;;
55009;SDS011;40903;51.638;7.528;2023-11-22T02:46:06;8.37;;;4.03;;
55009;SDS011;40903;51.638;7.528;2023-11-22T02:48:33;7.30;;;4.10;;
55009;SDS011;40903;51.638;7.528;2023-11-22T02:50:58;7.33;;;3.73;;
55009;SDS011;40903;51.638;7.528;2023-11-22T02:53:25;8.03;;;4.27;;
55009;SDS011;40903;51.638;7.528;2023-11-22T02:55:51;6.77;;;3.57;;
55009;SDS011;40903;51.638;7.528;2023-11-22T02:58:16;6.40;;;4.23;;
55009;SDS011;40903;51.638;7.528;2023-11-22T03:00:42;5.37;;;3.63;;
55009;SDS011;40903;51.638;7.528;2023-11-22T03:03:08;6.30;;;3.80;;
55009;SDS011;40903;51.638;7.528;2023-11-22T03:05:35;4.80;;;3.43;;
55009;SDS011;40903;51.638;7.528;2023-11-22T03:08:05;6.13;;;3.93;;
55009;SDS011;40903;51.638;7.528;2023-11-22T03:13:54;7.53;;;3.80;;
55009;SDS011;40903;51.638;7.528;2023-11-22T03:16:19;6.10;;;3.53;;
55009;SDS011;40903;51.638;7.528;2023-11-22T03:18:45;6.63;;;3.57;;
55009;SDS011;40903;51.638;7.528;2023-11-22T03:21:11;10.10;;;4.43;;
55009;SDS011;40903;51.638;7.528;2023-11-22T03:23:36;6.47;;;4.00;;
55009;SDS011;40903;51.638;7.528;2023-11-22T03:26:05;6.03;;;3.80;;
55009;SDS011;40903;51.638;7.528;2023-11-22T03:28:31;5.27;;;3.50;;
55009;SDS011;40903;51.638;7.528;2023-11-22T03:30:58;7.80;;;3.37;;
55009;SDS011;40903;51.638;7.528;2023-11-22T03:33:24;7.60;;;3.30;;
55009;SDS011;40903;51.638;7.528;2023-11-22T03:35:50;5.87;;;3.50;;
55009;SDS011;40903;51.638;7.528;2023-11-22T03:38:15;6.70;;;3.17;;
55009;SDS011;40903;51.638;7.528;2023-11-22T03:40:41;4.50;;;3.23;;
55009;SDS011;40903;51.638;7.528;2023-11-22T03:43:07;5.40;;;3.20;;
55009;SDS011;40903;51.638;7.528;2023-11-22T03:45:35;5.00;;;3.40;;
55009;SDS011;40903;51.638;7.528;2023-11-22T03:48:01;6.57;;;3.47;;
55009;SDS011;40903;51.638;7.528;2023-11-22T03:50:26;6.53;;;3.67;;
55009;SDS011;40903;51.638;7.528;2023-11-22T03:52:52;5.27;;;3.10;;
55009;SDS011;40903;51.638;7.528;2023-11-22T03:55:17;5.87;;;3.00;;
55009;SDS011;40903;51.638;7.528;2023-11-22T03:57:43;4.77;;;3.43;;
55009;SDS011;40903;51.638;7.528;2023-11-22T04:00:09;5.63;;;3.60;;
55009;SDS011;40903;51.638;7.528;2023-11-22T04:02:35;6.30;;;3.50;;
55009;SDS011;40903;51.638;7.528;2023-11-22T04:05:00;5.90;;;3.50;;
55009;SDS011;40903;51.638;7.528;2023-11-22T04:07:26;5.93;;;3.63;;
55009;SDS011;40903;51.638;7.528;2023-11-22T04:09:52;6.60;;;3.50;;
55009;SDS011;40903;51.638;7.528;2023-11-22T04:12:17;6.80;;;3.53;;
55009;SDS011;40903;51.638;7.528;2023-11-22T04:14:43;5.80;;;3.60;;
55009;SDS011;40903;51.638;7.528;2023-11-22T04:17:10;3.93;;;2.83;;
55009;SDS011;40903;51.638;7.528;2023-11-22T04:19:36;5.13;;;2.87;;
55009;SDS011;40903;51.638;7.528;2023-11-22T04:22:02;6.33;;;3.37;;
55009;SDS011;40903;51.638;7.528;2023-11-22T04:24:28;6.30;;;3.70;;
55009;SDS011;40903;51.638;7.528;2023-11-22T04:26:53;6.73;;;3.77;;
55009;SDS011;40903;51.638;7.528;2023-11-22T04:29:19;5.53;;;3.20;;
55009;SDS011;40903;51.638;7.528;2023-11-22T04:31:45;7.20;;;3.10;;
55009;SDS011;40903;51.638;7.528;2023-11-22T04:34:11;5.97;;;3.53;;
55009;SDS011;40903;51.638;7.528;2023-11-22T04:36:36;5.00;;;3.07;;
55009;SDS011;40903;51.638;7.528;2023-11-22T04:39:03;5.97;;;3.50;;
55009;SDS011;40903;51.638;7.528;2023-11-22T04:41:29;5.00;;;3.00;;
55009;SDS011;40903;51.638;7.528;2023-11-22T04:43:55;6.53;;;3.50;;
55009;SDS011;40903;51.638;7.528;2023-11-22T04:46:20;6.00;;;3.47;;
55009;SDS011;40903;51.638;7.528;2023-11-22T04:48:46;4.37;;;3.03;;
55009;SDS011;40903;51.638;7.528;2023-11-22T04:51:16;5.47;;;3.40;;
55009;SDS011;40903;51.638;7.528;2023-11-22T04:53:41;8.33;;;3.13;;
55009;SDS011;40903;51.638;7.528;2023-11-22T04:56:09;8.27;;;3.57;;
55009;SDS011;40903;51.638;7.528;2023-11-22T04:58:35;5.10;;;2.90;;
55009;SDS011;40903;51.638;7.528;2023-11-22T05:01:01;5.90;;;3.10;;
55009;SDS011;40903;51.638;7.528;2023-11-22T05:03:27;4.10;;;2.90;;
55009;SDS011;40903;51.638;7.528;2023-11-22T05:05:52;5.60;;;3.70;;
55009;SDS011;40903;51.638;7.528;2023-11-22T05:08:18;6.63;;;4.07;;
55009;SDS011;40903;51.638;7.528;2023-11-22T05:10:44;5.37;;;3.30;;
55009;SDS011;40903;51.638;7.528;2023-11-22T05:13:10;7.20;;;3.83;;
55009;SDS011;40903;51.638;7.528;2023-11-22T05:15:36;5.07;;;3.17;;
55009;SDS011;40903;51.638;7.528;2023-11-22T05:18:01;9.90;;;4.27;;
55009;SDS011;40903;51.638;7.528;2023-11-22T05:20:27;7.90;;;3.90;;
55009;SDS011;40903;51.638;7.528;2023-11-22T05:22:53;12.17;;;5.20;;
55009;SDS011;40903;51.638;7.528;2023-11-22T05:25:21;12.27;;;5.70;;
55009;SDS011;40903;51.638;7.528;2023-11-22T05:27:47;7.40;;;4.70;;
55009;SDS011;40903;51.638;7.528;2023-11-22T05:30:12;7.00;;;3.33;;
55009;SDS011;40903;51.638;7.528;2023-11-22T05:32:40;5.97;;;3.93;;
55009;SDS011;40903;51.638;7.528;2023-11-22T05:35:06;7.77;;;4.03;;
55009;SDS011;40903;51.638;7.528;2023-11-22T05:37:34;6.37;;;3.67;;
55009;SDS011;40903;51.638;7.528;2023-11-22T05:40:02;5.07;;;3.20;;
55009;SDS011;40903;51.638;7.528;2023-11-22T05:42:28;7.03;;;4.63;;
55009;SDS011;40903;51.638;7.528;2023-11-22T05:44:53;6.83;;;4.30;;
55009;SDS011;40903;51.638;7.528;2023-11-22T05:47:19;7.13;;;4.13;;
55009;SDS011;40903;51.638;7.528;2023-11-22T05:49:45;6.40;;;3.83;;
55009;SDS011;40903;51.638;7.528;2023-11-22T05:52:10;6.60;;;4.30;;
55009;SDS011;40903;51.638;7.528;2023-11-22T05:54:36;7.70;;;4.47;;
55009;SDS011;40903;51.638;7.528;2023-11-22T05:57:02;7.87;;;4.33;;
55009;SDS011;40903;51.638;7.528;2023-11-22T05:59:27;6.93;;;4.10;;
55009;SDS011;40903;51.638;7.528;2023-11-22T06:01:53;7.47;;;4.03;;
55009;SDS011;40903;51.638;7.528;2023-11-22T06:04:18;6.13;;;4.37;;
55009;SDS011;40903;51.638;7.528;2023-11-22T06:06:44;6.97;;;3.53;;
55009;SDS011;40903;51.638;7.528;2023-11-22T06:09:09;6.73;;;4.50;;
55009;SDS011;40903;51.638;7.528;2023-11-22T06:11:39;5.87;;;3.20;;
55009;SDS011;40903;51.638;7.528;2023-11-22T06:14:05;6.90;;;3.50;;
55009;SDS011;40903;51.638;7.528;2023-11-22T06:16:30;5.63;;;3.07;;
55009;SDS011;40903;51.638;7.528;2023-11-22T06:18:56;6.90;;;3.90;;
55009;SDS011;40903;51.638;7.528;2023-11-22T06:21:21;4.83;;;3.57;;
55009;SDS011;40903;51.638;7.528;2023-11-22T06:23:49;9.07;;;3.43;;
55009;SDS011;40903;51.638;7.528;2023-11-22T06:26:15;5.77;;;4.20;;
55009;SDS011;40903;51.638;7.528;2023-11-22T06:28:40;4.70;;;3.20;;
55009;SDS011;40903;51.638;7.528;2023-11-22T06:31:06;5.57;;;3.10;;
55009;SDS011;40903;51.638;7.528;2023-11-22T06:33:32;5.50;;;3.27;;
55009;SDS011;40903;51.638;7.528;2023-11-22T06:35:57;5.73;;;4.10;;
55009;SDS011;40903;51.638;7.528;2023-11-22T06:38:23;7.80;;;3.40;;
55009;SDS011;40903;51.638;7.528;2023-11-22T06:40:48;5.77;;;3.67;;
55009;SDS011;40903;51.638;7.528;2023-11-22T06:43:14;7.27;;;3.27;;
55009;SDS011;40903;51.638;7.528;2023-11-22T06:45:39;9.07;;;4.57;;
55009;SDS011;40903;51.638;7.528;2023-11-22T06:48:06;9.97;;;4.90;;
55009;SDS011;40903;51.638;7.528;2023-11-22T06:50:32;9.57;;;4.70;;
55009;SDS011;40903;51.638;7.528;2023-11-22T06:52:57;8.27;;;5.33;;
55009;SDS011;40903;51.638;7.528;2023-11-22T06:55:23;7.23;;;4.13;;
55009;SDS011;40903;51.638;7.528;2023-11-22T06:57:48;7.97;;;4.27;;
55009;SDS011;40903;51.638;7.528;2023-11-22T07:00:15;6.17;;;3.17;;
55009;SDS011;40903;51.638;7.528;2023-11-22T07:02:41;5.23;;;3.27;;
55009;SDS011;40903;51.638;7.528;2023-11-22T07:05:07;4.70;;;3.03;;
55009;SDS011;40903;51.638;7.528;2023-11-22T07:07:36;7.10;;;3.27;;
55009;SDS011;40903;51.638;7.528;2023-11-22T07:10:02;6.93;;;3.70;;
55009;SDS011;40903;51.638;7.528;2023-11-22T07:12:30;7.40;;;4.20;;
55009;SDS011;40903;51.638;7.528;2023-11-22T07:14:56;4.57;;;2.97;;
55009;SDS011;40903;51.638;7.528;2023-11-22T07:17:22;6.77;;;3.70;;
55009;SDS011;40903;51.638;7.528;2023-11-22T07:19:48;6.53;;;3.27;;
55009;SDS011;40903;51.638;7.528;2023-11-22T07:22:14;7.50;;;4.00;;
55009;SDS011;40903;51.638;7.528;2023-11-22T07:24:45;6.80;;;3.90;;
55009;SDS011;40903;51.638;7.528;2023-11-22T07:27:12;6.93;;;4.57;;
55009;SDS011;40903;51.638;7.528;2023-11-22T07:29:41;6.63;;;4.00;;
55009;SDS011;40903;51.638;7.528;2023-11-22T07:32:08;7.23;;;3.63;;
55009;SDS011;40903;51.638;7.528;2023-11-22T07:34:35;6.97;;;3.80;;
55009;SDS011;40903;51.638;7.528;2023-11-22T07:37:01;4.87;;;3.07;;
55009;SDS011;40903;51.638;7.528;2023-11-22T07:39:27;5.93;;;3.87;;
55009;SDS011;40903;51.638;7.528;2023-11-22T07:41:54;6.40;;;3.70;;
55009;SDS011;40903;51.638;7.528;2023-11-22T07:44:20;5.33;;;3.47;;
55009;SDS011;40903;51.638;7.528;2023-11-22T07:46:49;6.97;;;4.20;;
55009;SDS011;40903;51.638;7.528;2023-11-22T07:49:14;8.77;;;4.40;;
55009;SDS011;40903;51.638;7.528;2023-11-22T07:51:40;4.27;;;3.30;;
55009;SDS011;40903;51.638;7.528;2023-11-22T07:54:06;5.43;;;3.30;;
55009;SDS011;40903;51.638;7.528;2023-11-22T07:56:32;7.10;;;3.90;;
55009;SDS011;40903;51.638;7.528;2023-11-22T07:58:58;7.30;;;4.10;;
55009;SDS011;40903;51.638;7.528;2023-11-22T08:01:24;7.30;;;4.03;;
55009;SDS011;40903;51.638;7.528;2023-11-22T08:03:50;6.83;;;3.80;;
55009;SDS011;40903;51.638;7.528;2023-11-22T08:06:17;8.33;;;4.40;;
55009;SDS011;40903;51.638;7.528;2023-11-22T08:08:43;12.50;;;4.80;;
55009;SDS011;40903;51.638;7.528;2023-11-22T08:11:11;5.87;;;3.70;;
55009;SDS011;40903;51.638;7.528;2023-11-22T08:13:43;6.57;;;3.90;;
55009;SDS011;40903;51.638;7.528;2023-11-22T08:16:10;7.27;;;3.43;;
55009;SDS011;40903;51.638;7.528;2023-11-22T08:18:38;8.03;;;4.20;;
55009;SDS011;40903;51.638;7.528;2023-11-22T08:21:04;6.33;;;4.03;;
55009;SDS011;40903;51.638;7.528;2023-11-22T08:23:29;7.57;;;4.50;;
55009;SDS011;40903;51.638;7.528;2023-11-22T08:25:58;8.50;;;4.30;;
55009;SDS011;40903;51.638;7.528;2023-11-22T08:28:24;7.77;;;4.43;;
55009;SDS011;40903;51.638;7.528;2023-11-22T08:30:51;8.77;;;4.90;;
55009;SDS011;40903;51.638;7.528;2023-11-22T08:33:16;8.17;;;4.53;;
55009;SDS011;40903;51.638;7.528;2023-11-22T08:35:42;9.40;;;5.27;;
55009;SDS011;40903;51.638;7.528;2023-11-22T08:38:08;9.00;;;4.83;;
55009;SDS011;40903;51.638;7.528;2023-11-22T08:40:34;13.10;;;4.67;;
55009;SDS011;40903;51.638;7.528;2023-11-22T08:43:02;7.70;;;4.57;;
55009;SDS011;40903;51.638;7.528;2023-11-22T08:45:29;8.33;;;4.63;;
55009;SDS011;40903;51.638;7.528;2023-11-22T08:47:56;10.80;;;5.10;;
55009;SDS011;40903;51.638;7.528;2023-11-22T08:50:22;10.57;;;4.67;;
55009;SDS011;40903;51.638;7.528;2023-11-22T08:52:48;9.83;;;4.97;;
55009;SDS011;40903;51.638;7.528;2023-11-22T08:55:18;9.50;;;4.47;;
55009;SDS011;40903;51.638;7.528;2023-11-22T08:57:47;5.77;;;4.50;;
55009;SDS011;40903;51.638;7.528;2023-11-22T09:00:16;7.47;;;4.67;;
55009;SDS011;40903;51.638;7.528;2023-11-22T09:02:47;10.07;;;4.50;;
55009;SDS011;40903;51.638;7.528;2023-11-22T09:05:13;9.50;;;5.00;;
55009;SDS011;40903;51.638;7.528;2023-11-22T09:07:42;6.60;;;4.37;;
55009;SDS011;40903;51.638;7.528;2023-11-22T09:10:09;6.67;;;4.20;;
55009;SDS011;40903;51.638;7.528;2023-11-22T09:12:38;6.77;;;4.60;;
55009;SDS011;40903;51.638;7.528;2023-11-22T09:15:09;5.93;;;4.27;;
55009;SDS011;40903;51.638;7.528;2023-11-22T09:17:39;8.10;;;4.97;;
55009;SDS011;40903;51.638;7.528;2023-11-22T09:20:09;7.13;;;5.50;;
55009;SDS011;40903;51.638;7.528;2023-11-22T09:22:44;7.50;;;4.80;;
55009;SDS011;40903;51.638;7.528;2023-11-22T09:25:15;5.93;;;4.20;;
55009;SDS011;40903;51.638;7.528;2023-11-22T09:27:42;6.83;;;4.17;;
55009;SDS011;40903;51.638;7.528;2023-11-22T09:30:12;6.77;;;4.37;;
55009;SDS011;40903;51.638;7.528;2023-11-22T09:32:44;7.70;;;4.97;;
55009;SDS011;40903;51.638;7.528;2023-11-22T09:35:13;7.13;;;4.30;;
55009;SDS011;40903;51.638;7.528;2023-11-22T09:37:40;7.00;;;4.23;;
55009;SDS011;40903;51.638;7.528;2023-11-22T09:40:10;6.20;;;4.33;;
55009;SDS011;40903;51.638;7.528;2023-11-22T09:42:37;6.80;;;3.90;;
55009;SDS011;40903;51.638;7.528;2023-11-22T09:45:03;7.33;;;4.40;;
55009;SDS011;40903;51.638;7.528;2023-11-22T09:47:29;9.20;;;3.93;;
55009;SDS011;40903;51.638;7.528;2023-11-22T09:49:58;7.30;;;4.07;;
55009;SDS011;40903;51.638;7.528;2023-11-22T09:52:31;8.07;;;4.37;;
55009;SDS011;40903;51.638;7.528;2023-11-22T09:54:59;7.47;;;4.60;;
55009;SDS011;40903;51.638;7.528;2023-11-22T09:57:27;8.57;;;4.70;;
55009;SDS011;40903;51.638;7.528;2023-11-22T09:59:55;8.00;;;4.73;;
55009;SDS011;40903;51.638;7.528;2023-11-22T10:02:24;7.63;;;5.00;;
55009;SDS011;40903;51.638;7.528;2023-11-22T10:04:53;7.03;;;4.00;;
55009;SDS011;40903;51.638;7.528;2023-11-22T10:07:19;8.63;;;4.73;;
55009;SDS011;40903;51.638;7.528;2023-11-22T10:09:44;8.20;;;4.93;;
55009;SDS011;40903;51.638;7.528;2023-11-22T10:12:11;6.23;;;3.53;;
55009;SDS011;40903;51.638;7.528;2023-11-22T10:14:38;5.20;;;3.60;;
55009;SDS011;40903;51.638;7.528;2023-11-22T10:17:03;6.33;;;4.23;;
55009;SDS011;40903;51.638;7.528;2023-11-22T10:19:30;8.67;;;4.13;;
55009;SDS011;40903;51.638;7.528;2023-11-22T10:22:02;6.90;;;3.90;;
55009;SDS011;40903;51.638;7.528;2023-11-22T10:24:32;6.27;;;4.27;;
55009;SDS011;40903;51.638;7.528;2023-11-22T10:26:59;6.97;;;4.17;;
55009;SDS011;40903;51.638;7.528;2023-11-22T10:29:28;5.40;;;3.87;;
55009;SDS011;40903;51.638;7.528;2023-11-22T10:31:53;8.87;;;4.43;;
55009;SDS011;40903;51.638;7.528;2023-11-22T10:34:23;6.47;;;3.87;;
55009;SDS011;40903;51.638;7.528;2023-11-22T10:36:50;6.80;;;4.27;;
55009;SDS011;40903;51.638;7.528;2023-11-22T10:39:19;5.83;;;4.00;;
55009;SDS011;40903;51.638;7.528;2023-11-22T10:41:47;9.83;;;4.80;;
55009;SDS011;40903;51.638;7.528;2023-11-22T10:44:16;6.73;;;3.80;;
55009;SDS011;40903;51.638;7.528;2023-11-22T10:46:45;5.43;;;3.83;;
55009;SDS011;40903;51.638;7.528;2023-11-22T10:49:12;6.17;;;3.90;;
55009;SDS011;40903;51.638;7.528;2023-11-22T10:51:39;4.73;;;3.30;;
55009;SDS011;40903;51.638;7.528;2023-11-22T10:54:10;5.53;;;3.20;;
55009;SDS011;40903;51.638;7.528;2023-11-22T10:56:36;6.67;;;3.77;;
55009;SDS011;40903;51.638;7.528;2023-11-22T10:59:06;6.67;;;3.80;;
55009;SDS011;40903;51.638;7.528;2023-11-22T11:01:38;5.37;;;3.60;;
55009;SDS011;40903;51.638;7.528;2023-11-22T11:04:11;8.27;;;4.63;;
55009;SDS011;40903;51.638;7.528;2023-11-22T11:06:44;6.73;;;3.73;;
55009;SDS011;40903;51.638;7.528;2023-11-22T11:09:16;5.37;;;3.57;;
55009;SDS011;40903;51.638;7.528;2023-11-22T11:11:46;5.73;;;4.03;;
55009;SDS011;40903;51.638;7.528;2023-11-22T11:14:12;5.10;;;3.30;;
55009;SDS011;40903;51.638;7.528;2023-11-22T11:16:40;7.00;;;3.83;;
55009;SDS011;40903;51.638;7.528;2023-11-22T11:19:12;8.30;;;3.67;;
55009;SDS011;40903;51.638;7.528;2023-11-22T11:21:39;4.67;;;3.27;;
55009;SDS011;40903;51.638;7.528;2023-11-22T11:24:05;6.10;;;3.80;;
55009;SDS011;40903;51.638;7.528;2023-11-22T11:26:34;7.20;;;3.50;;
55009;SDS011;40903;51.638;7.528;2023-11-22T11:29:02;5.40;;;3.83;;
55009;SDS011;40903;51.638;7.528;2023-11-22T11:31:32;4.40;;;3.00;;
55009;SDS011;40903;51.638;7.528;2023-11-22T11:34:01;5.80;;;3.63;;
55009;SDS011;40903;51.638;7.528;2023-11-22T11:36:31;7.43;;;3.17;;
55009;SDS011;40903;51.638;7.528;2023-11-22T11:38:58;6.13;;;3.77;;
55009;SDS011;40903;51.638;7.528;2023-11-22T11:41:34;5.07;;;3.23;;
55009;SDS011;40903;51.638;7.528;2023-11-22T11:44:02;6.80;;;3.50;;
55009;SDS011;40903;51.638;7.528;2023-11-22T11:46:29;5.37;;;2.93;;
55009;SDS011;40903;51.638;7.528;2023-11-22T11:48:56;5.97;;;3.67;;
55009;SDS011;40903;51.638;7.528;2023-11-22T11:51:23;7.37;;;3.50;;
55009;SDS011;40903;51.638;7.528;2023-11-22T11:53:52;5.23;;;3.63;;
55009;SDS011;40903;51.638;7.528;2023-11-22T11:56:19;6.00;;;3.13;;
55009;SDS011;40903;51.638;7.528;2023-11-22T11:58:45;4.63;;;3.03;;
55009;SDS011;40903;51.638;7.528;2023-11-22T12:01:15;4.37;;;2.83;;
55009;SDS011;40903;51.638;7.528;2023-11-22T12:03:42;4.67;;;2.60;;
55009;SDS011;40903;51.638;7.528;2023-11-22T12:06:09;2.50;;;2.07;;
55009;SDS011;40903;51.638;7.528;2023-11-22T12:08:35;3.07;;;2.10;;
55009;SDS011;40903;51.638;7.528;2023-11-22T12:11:03;4.63;;;1.90;;
55009;SDS011;40903;51.638;7.528;2023-11-22T12:13:32;3.50;;;2.30;;
55009;SDS011;40903;51.638;7.528;2023-11-22T12:15:58;2.40;;;1.70;;
55009;SDS011;40903;51.638;7.528;2023-11-22T12:18:23;3.53;;;2.00;;
55009;SDS011;40903;51.638;7.528;2023-11-22T12:23:22;2.37;;;1.57;;
55009;SDS011;40903;51.638;7.528;2023-11-22T12:25:52;3.33;;;2.10;;
55009;SDS011;40903;51.638;7.528;2023-11-22T12:28:29;2.80;;;1.80;;
55009;SDS011;40903;51.638;7.528;2023-11-22T12:31:06;3.27;;;1.80;;
55009;SDS011;40903;51.638;7.528;2023-11-22T12:33:35;3.23;;;2.27;;
55009;SDS011;40903;51.638;7.528;2023-11-22T12:36:04;4.00;;;2.40;;
55009;SDS011;40903;51.638;7.528;2023-11-22T12:38:30;3.43;;;2.53;;
55009;SDS011;40903;51.638;7.528;2023-11-22T12:40:56;3.47;;;2.10;;
55009;SDS011;40903;51.638;7.528;2023-11-22T12:43:26;7.43;;;2.33;;
55009;SDS011;40903;51.638;7.528;2023-11-22T12:46:01;3.77;;;2.10;;
55009;SDS011;40903;51.638;7.528;2023-11-22T12:48:32;3.20;;;2.10;;
55009;SDS011;40903;51.638;7.528;2023-11-22T12:50:58;3.73;;;1.90;;
55009;SDS011;40903;51.638;7.528;2023-11-22T12:53:25;1.70;;;1.50;;
55009;SDS011;40903;51.638;7.528;2023-11-22T12:55:53;3.57;;;2.27;;
55009;SDS011;40903;51.638;7.528;2023-11-22T12:58:19;3.53;;;2.57;;
55009;SDS011;40903;51.638;7.528;2023-11-22T13:00:46;3.93;;;2.17;;
55009;SDS011;40903;51.638;7.528;2023-11-22T13:03:13;2.27;;;1.80;;
55009;SDS011;40903;51.638;7.528;2023-11-22T13:05:42;3.07;;;1.73;;
55009;SDS011;40903;51.638;7.528;2023-11-22T13:08:09;4.27;;;2.20;;
55009;SDS011;40903;51.638;7.528;2023-11-22T13:10:51;4.60;;;2.87;;
55009;SDS011;40903;51.638;7.528;2023-11-22T13:13:23;5.13;;;2.40;;
55009;SDS011;40903;51.638;7.528;2023-11-22T13:15:50;2.50;;;1.80;;
55009;SDS011;40903;51.638;7.528;2023-11-22T13:18:16;3.80;;;2.20;;
55009;SDS011;40903;51.638;7.528;2023-11-22T13:20:43;3.73;;;1.87;;
55009;SDS011;40903;51.638;7.528;2023-11-22T13:23:09;2.30;;;2.10;;
55009;SDS011;40903;51.638;7.528;2023-11-22T13:25:35;2.60;;;1.77;;
55009;SDS011;40903;51.638;7.528;2023-11-22T13:28:01;3.30;;;2.13;;
55009;SDS011;40903;51.638;7.528;2023-11-22T13:30:27;3.37;;;2.30;;
55009;SDS011;40903;51.638;7.528;2023-11-22T13:32:54;3.73;;;2.30;;
55009;SDS011;40903;51.638;7.528;2023-11-22T13:35:23;3.50;;;1.90;;
55009;SDS011;40903;51.638;7.528;2023-11-22T13:37:51;4.40;;;1.80;;
55009;SDS011;40903;51.638;7.528;2023-11-22T13:40:17;5.00;;;2.77;;
55009;SDS011;40903;51.638;7.528;2023-11-22T13:42:48;2.90;;;1.93;;
55009;SDS011;40903;51.638;7.528;2023-11-22T13:45:16;3.03;;;2.23;;
55009;SDS011;40903;51.638;7.528;2023-11-22T13:47:45;3.20;;;1.87;;
55009;SDS011;40903;51.638;7.528;2023-11-22T13:50:15;3.30;;;2.27;;
55009;SDS011;40903;51.638;7.528;2023-11-22T13:52:56;5.77;;;2.47;;
55009;SDS011;40903;51.638;7.528;2023-11-22T13:55:23;4.40;;;2.60;;
55009;SDS011;40903;51.638;7.528;2023-11-22T13:57:52;4.73;;;2.50;;
55009;SDS011;40903;51.638;7.528;2023-11-22T14:00:19;4.57;;;2.97;;
55009;SDS011;40903;51.638;7.528;2023-11-22T14:02:54;10.60;;;3.47;;
55009;SDS011;40903;51.638;7.528;2023-11-22T14:05:22;3.93;;;2.43;;
55009;SDS011;40903;51.638;7.528;2023-11-22T14:07:48;4.43;;;2.53;;
55009;SDS011;40903;51.638;7.528;2023-11-22T14:10:14;4.57;;;2.50;;
55009;SDS011;40903;51.638;7.528;2023-11-22T14:12:43;3.23;;;2.23;;
55009;SDS011;40903;51.638;7.528;2023-11-22T14:15:10;3.03;;;2.20;;
55009;SDS011;40903;51.638;7.528;2023-11-22T14:17:36;5.03;;;2.77;;
55009;SDS011;40903;51.638;7.528;2023-11-22T14:20:11;4.07;;;2.57;;
55009;SDS011;40903;51.638;7.528;2023-11-22T14:22:38;5.30;;;2.70;;
55009;SDS011;40903;51.638;7.528;2023-11-22T14:25:08;4.90;;;2.93;;
55009;SDS011;40903;51.638;7.528;2023-11-22T14:27:39;4.73;;;3.20;;
55009;SDS011;40903;51.638;7.528;2023-11-22T14:30:06;10.13;;;3.27;;
55009;SDS011;40903;51.638;7.528;2023-11-22T14:32:33;5.97;;;3.23;;
55009;SDS011;40903;51.638;7.528;2023-11-22T14:35:02;5.13;;;2.70;;
55009;SDS011;40903;51.638;7.528;2023-11-22T14:37:28;4.50;;;3.07;;
55009;SDS011;40903;51.638;7.528;2023-11-22T14:39:55;4.70;;;2.97;;
55009;SDS011;40903;51.638;7.528;2023-11-22T14:42:21;3.93;;;2.43;;
55009;SDS011;40903;51.638;7.528;2023-11-22T14:44:46;4.77;;;2.97;;
55009;SDS011;40903;51.638;7.528;2023-11-22T14:47:13;3.47;;;2.30;;
55009;SDS011;40903;51.638;7.528;2023-11-22T14:49:44;2.93;;;2.30;;
55009;SDS011;40903;51.638;7.528;2023-11-22T14:52:10;5.53;;;2.60;;